Time;durP1;ratioP1;P1;durP2;ratioP2;P2;SDS_P1;SDS_P2;PMS_P1;PMS_P2;Temp;Humidity;BMP_temperature;BMP_pressure;BME280_temperature;BME280_humidity;BME280_pressure;Samples;Min_cycle;Max_cycle;Signal;HPM_P1;HPM_P2
2024/01/10 00:01:17;;;;;;;1.10;1.10;;;;;;;-4.41;100.00;101929.22;5064209;28;20278;-74
2024/01/10 00:03:44;;;;;;;1.67;1.67;;;;;;;-4.29;100.00;101935.56;5084016;28;20214;-74
2024/01/10 00:06:11;;;;;;;1.23;1.23;;;;;;;-4.21;100.00;101929.66;5084001;28;20187;-73
2024/01/10 00:08:38;;;;;;;1.50;1.50;;;;;;;-4.40;100.00;101933.56;5072777;28;20654;-73
2024/01/10 00:11:06;;;;;;;1.33;1.33;;;;;;;-4.29;100.00;101938.09;5074309;28;20662;-73
2024/01/10 00:13:33;;;;;;;1.50;1.50;;;;;;;-4.22;100.00;101941.41;5069668;28;20567;-75
2024/01/10 00:16:01;;;;;;;1.60;1.60;;;;;;;-4.24;100.00;101930.22;5069726;28;20191;-73
2024/01/10 00:18:27;;;;;;;1.10;1.10;;;;;;;-4.19;100.00;101928.16;5069636;28;20226;-73
2024/01/10 00:20:54;;;;;;;1.30;1.30;;;;;;;-4.14;100.00;101947.28;5068283;28;20690;-73
2024/01/10 00:23:21;;;;;;;1.40;1.40;;;;;;;-4.21;100.00;101937.25;5069072;28;20557;-73
2024/01/10 00:25:48;;;;;;;1.00;1.00;;;;;;;-4.21;100.00;101939.78;5069804;28;20202;-72
2024/01/10 00:28:17;;;;;;;2.03;1.80;;;;;;;-4.22;100.00;101945.56;5064203;28;20214;-72
2024/01/10 00:30:44;;;;;;;1.60;1.60;;;;;;;-4.24;100.00;101947.03;5068992;28;20191;-75
2024/01/10 00:33:12;;;;;;;1.40;1.40;;;;;;;-4.20;100.00;101942.47;5069471;28;20194;-74
2024/01/10 00:35:39;;;;;;;2.63;2.43;;;;;;;-4.33;100.00;101929.28;5069452;28;20223;-73
2024/01/10 00:38:05;;;;;;;1.53;1.53;;;;;;;-4.39;100.00;101937.88;5069179;28;20210;-73
2024/01/10 00:40:32;;;;;;;4.00;2.00;;;;;;;-4.35;100.00;101955.19;5069522;28;20202;-73
2024/01/10 00:42:59;;;;;;;2.10;2.00;;;;;;;-4.27;100.00;101947.63;5072273;28;20205;-73
2024/01/10 00:45:27;;;;;;;2.43;2.33;;;;;;;-4.34;100.00;101926.59;5072857;28;20551;-73
2024/01/10 00:47:54;;;;;;;1.20;1.20;;;;;;;-4.42;100.00;101915.66;5072855;28;20206;-73
2024/01/10 00:50:21;;;;;;;1.30;1.30;;;;;;;-4.17;100.00;101954.53;5073384;28;20674;-75
2024/01/10 00:52:48;;;;;;;1.10;1.10;;;;;;;-4.22;100.00;101949.00;5073169;28;20209;-74
2024/01/10 00:55:13;;;;;;;1.40;1.40;;;;;;;-4.33;100.00;101929.28;5069264;28;20191;-74
2024/01/10 00:57:40;;;;;;;1.60;1.60;;;;;;;-4.19;100.00;101950.94;5069187;28;20242;-74
2024/01/10 01:00:08;;;;;;;1.30;1.30;;;;;;;-4.13;100.00;101946.50;5072535;28;20299;-73
2024/01/10 01:02:39;;;;;;;1.30;1.30;;;;;;;-4.06;100.00;101947.28;5054053;28;20659;-74
2024/01/10 01:05:07;;;;;;;1.30;1.30;;;;;;;-4.23;100.00;101916.81;5073004;28;20292;-74
2024/01/10 01:07:34;;;;;;;1.40;1.40;;;;;;;-4.19;100.00;101939.19;5072926;28;20256;-75
2024/01/10 01:10:01;;;;;;;1.30;1.30;;;;;;;-4.12;100.00;101930.59;5071093;28;20584;-75
2024/01/10 01:12:28;;;;;;;1.10;1.10;;;;;;;-4.08;100.00;101950.41;5072463;28;20713;-75
2024/01/10 01:14:54;;;;;;;1.27;1.27;;;;;;;-4.26;100.00;101918.16;5072400;28;20203;-74
2024/01/10 01:17:21;;;;;;;1.60;1.60;;;;;;;-4.18;100.00;101935.94;5072851;28;20199;-74
2024/01/10 01:19:49;;;;;;;1.30;1.30;;;;;;;-4.31;100.00;101937.91;5072460;28;20221;-74
2024/01/10 01:22:16;;;;;;;1.20;1.20;;;;;;;-4.54;100.00;101943.16;5053402;28;20276;-74
2024/01/10 01:24:43;;;;;;;1.50;1.50;;;;;;;-4.52;100.00;101935.72;5070257;28;20218;-74
2024/01/10 01:27:10;;;;;;;1.43;1.43;;;;;;;-4.57;100.00;101920.06;5072291;28;20195;-73
2024/01/10 01:29:37;;;;;;;1.90;1.90;;;;;;;-4.42;100.00;101933.38;5072014;28;20203;-73
2024/01/10 01:32:04;;;;;;;1.50;1.50;;;;;;;-4.55;100.00;101900.88;5071995;28;20210;-73
2024/01/10 01:34:31;;;;;;;1.40;1.40;;;;;;;-4.40;100.00;101937.00;5072088;28;20309;-74
2024/01/10 01:37:00;;;;;;;3.70;3.40;;;;;;;-4.36;100.00;101928.06;5072640;28;20203;-73
2024/01/10 01:39:27;;;;;;;1.23;1.23;;;;;;;-4.42;100.00;101927.44;5071914;28;20230;-73
2024/01/10 01:41:54;;;;;;;1.20;1.20;;;;;;;-4.44;100.00;101923.84;5072384;28;20202;-73
2024/01/10 01:44:21;;;;;;;2.40;2.23;;;;;;;-4.40;100.00;101923.44;5071635;28;20226;-73
2024/01/10 01:46:49;;;;;;;1.73;1.73;;;;;;;-4.39;100.00;101922.72;5072123;28;20606;-73
2024/01/10 01:49:16;;;;;;;1.10;1.10;;;;;;;-4.56;100.00;101908.28;5072273;28;20655;-74
2024/01/10 01:51:43;;;;;;;1.57;1.57;;;;;;;-4.59;100.00;101919.00;5071767;28;20667;-73
2024/01/10 01:54:12;;;;;;;1.20;1.20;;;;;;;-4.36;100.00;101917.94;5071480;28;20687;-73
2024/01/10 01:56:40;;;;;;;2.27;2.17;;;;;;;-4.44;100.00;101921.31;5071749;28;20195;-74
2024/01/10 01:59:07;;;;;;;2.43;2.33;;;;;;;-4.52;100.00;101901.19;5071864;28;20198;-74
2024/01/10 02:01:34;;;;;;;6.50;6.10;;;;;;;-4.59;100.00;101883.56;5083367;28;20199;-73
2024/01/10 02:04:02;;;;;;;3.87;3.67;;;;;;;-4.41;100.00;101922.53;5071785;28;20223;-73
2024/01/10 02:06:29;;;;;;;1.30;1.30;;;;;;;-4.45;100.00;101914.44;5071674;28;20198;-72
2024/01/10 02:08:57;;;;;;;1.70;1.63;;;;;;;-4.40;100.00;101916.75;5071677;28;20226;-73
2024/01/10 02:11:25;;;;;;;1.30;1.30;;;;;;;-4.27;100.00;101921.41;5071517;28;20655;-73
2024/01/10 02:13:54;;;;;;;1.40;1.40;;;;;;;-4.32;100.00;101918.44;5065243;28;20227;-73
2024/01/10 02:16:22;;;;;;;1.30;1.30;;;;;;;-4.26;100.00;101913.09;5063214;28;20211;-73
2024/01/10 02:18:49;;;;;;;1.90;1.90;;;;;;;-4.23;100.00;101905.78;5071386;28;20195;-73
2024/01/10 02:21:16;;;;;;;1.10;1.10;;;;;;;-4.24;100.00;101904.91;5069664;28;20256;-73
2024/01/10 02:23:43;;;;;;;1.30;1.30;;;;;;;-4.22;100.00;101905.06;5070833;28;20198;-73
2024/01/10 02:26:11;;;;;;;1.10;1.10;;;;;;;-4.24;100.00;101904.91;5070915;28;20191;-74
2024/01/10 02:28:38;;;;;;;1.57;1.57;;;;;;;-4.39;100.00;101879.66;5071121;28;20713;-73
2024/01/10 02:31:05;;;;;;;1.33;1.33;;;;;;;-4.29;100.00;101884.94;5070994;28;20717;-74
2024/01/10 02:33:33;;;;;;;1.40;1.40;;;;;;;-4.08;100.00;101902.31;5070936;28;20190;-73
2024/01/10 02:35:59;;;;;;;1.30;1.30;;;;;;;-4.25;100.00;101902.22;5070704;28;20273;-73
2024/01/10 02:38:26;;;;;;;1.20;1.20;;;;;;;-4.26;100.00;101901.31;5070955;28;20640;-74
2024/01/10 02:40:55;;;;;;;1.33;1.33;;;;;;;-4.22;100.00;101897.47;5070468;28;20592;-74
2024/01/10 02:43:23;;;;;;;1.20;1.20;;;;;;;-4.17;100.00;101896.28;5070869;28;20667;-73
2024/01/10 02:45:50;;;;;;;1.37;1.37;;;;;;;-4.18;100.00;101895.41;5071237;28;20280;-73
2024/01/10 02:48:17;;;;;;;2.13;2.03;;;;;;;-4.21;100.00;101897.59;5070712;28;20217;-74
2024/01/10 02:50:44;;;;;;;1.70;1.70;;;;;;;-4.22;100.00;101887.34;5070550;28;20210;-74
2024/01/10 02:53:10;;;;;;;1.50;1.50;;;;;;;-4.22;100.00;101894.94;5070531;28;20195;-73
2024/01/10 02:55:37;;;;;;;1.10;1.10;;;;;;;-4.30;100.00;101895.78;5035454;28;20202;-74
2024/01/10 02:58:04;;;;;;;1.40;1.40;;;;;;;-4.27;100.00;101898.63;5051954;28;20202;-74
2024/01/10 03:00:32;;;;;;;1.50;1.50;;;;;;;-4.30;100.00;101896.69;5070495;28;20218;-74
2024/01/10 03:02:59;;;;;;;1.27;1.27;;;;;;;-4.49;100.00;101871.88;5032403;28;20207;-74
2024/01/10 03:05:26;;;;;;;8.10;7.47;;;;;;;-4.31;100.00;101886.38;5050542;28;20233;-74
2024/01/10 03:07:53;;;;;;;1.50;1.50;;;;;;;-4.33;100.00;101877.75;5070342;28;20194;-74
2024/01/10 03:10:20;;;;;;;1.83;1.83;;;;;;;-4.35;100.00;101884.31;5070602;28;20203;-74
2024/01/10 03:12:47;;;;;;;1.40;1.40;;;;;;;-4.28;100.00;101886.72;5070226;28;20206;-74
2024/01/10 03:15:13;;;;;;;1.50;1.50;;;;;;;-4.48;100.00;101864.41;5070355;28;20209;-74
2024/01/10 03:17:41;;;;;;;1.80;1.80;;;;;;;-4.30;100.00;101883.13;5070682;28;20199;-73
2024/01/10 03:20:09;;;;;;;2.30;2.20;;;;;;;-4.48;100.00;101855.94;5070404;28;20195;-74
2024/01/10 03:22:36;;;;;;;10.30;2.93;;;;;;;-4.36;100.00;101883.41;5051353;28;20222;-73
2024/01/10 03:25:03;;;;;;;1.40;1.40;;;;;;;-4.43;100.00;101881.00;5054499;28;20215;-73
2024/01/10 03:27:30;;;;;;;1.40;1.40;;;;;;;-4.47;100.00;101880.50;5070174;28;20187;-74
2024/01/10 03:29:56;;;;;;;1.33;1.33;;;;;;;-4.44;100.00;101878.28;5069301;28;20553;-72
2024/01/10 03:32:23;;;;;;;1.20;1.20;;;;;;;-4.48;100.00;101886.31;5069678;28;20199;-73
2024/01/10 03:34:52;;;;;;;1.60;1.60;;;;;;;-4.47;100.00;101878.88;5067169;28;20230;-73
2024/01/10 03:37:19;;;;;;;1.20;1.20;;;;;;;-4.59;100.00;101873.44;5069980;28;20242;-73
2024/01/10 03:39:46;;;;;;;2.97;2.30;;;;;;;-4.46;100.00;101884.84;5070049;28;20202;-73
2024/01/10 03:42:12;;;;;;;1.53;1.53;;;;;;;-4.65;100.00;101855.13;5069419;28;20231;-73
2024/01/10 03:44:39;;;;;;;2.63;2.53;;;;;;;-4.51;100.00;101882.72;5069506;28;20269;-72
2024/01/10 03:47:06;;;;;;;3.57;2.17;;;;;;;-4.44;100.00;101870.69;5069858;28;20588;-73
2024/01/10 03:49:33;;;;;;;1.50;1.50;;;;;;;-4.52;100.00;101883.47;5070072;28;20202;-73
2024/01/10 03:52:01;;;;;;;1.60;1.60;;;;;;;-4.48;100.00;101877.06;5069376;28;20199;-73
2024/01/10 03:54:28;;;;;;;1.40;1.40;;;;;;;-4.58;100.00;101877.78;5069657;28;20293;-73
2024/01/10 03:56:54;;;;;;;16.53;4.80;;;;;;;-4.49;100.00;101879.47;5069586;28;20206;-73
2024/01/10 03:59:21;;;;;;;1.30;1.30;;;;;;;-4.42;100.00;101875.16;5069169;28;20270;-73
2024/01/10 04:01:48;;;;;;;1.40;1.40;;;;;;;-4.37;100.00;101875.66;5050823;28;20225;-73
2024/01/10 04:04:15;;;;;;;2.00;2.00;;;;;;;-4.39;100.00;101874.59;5033976;28;20201;-73
2024/01/10 04:06:41;;;;;;;1.77;1.73;;;;;;;-4.40;100.00;101875.34;5069299;28;20201;-73
2024/01/10 04:09:11;;;;;;;1.33;1.33;;;;;;;-4.51;100.00;101859.06;5034691;28;20218;-72
2024/01/10 04:11:37;;;;;;;4.23;4.00;;;;;;;-4.35;100.00;101884.31;5069087;28;20206;-72
2024/01/10 04:14:05;;;;;;;1.60;1.60;;;;;;;-4.42;100.00;101876.84;5069170;28;20658;-74
2024/01/10 04:16:32;;;;;;;1.80;1.80;;;;;;;-4.54;100.00;101856.22;5070580;28;20260;-73
2024/01/10 04:18:59;;;;;;;1.53;1.53;;;;;;;-4.36;100.00;101885.03;5073410;28;20584;-73
2024/01/10 04:21:25;;;;;;;1.40;1.40;;;;;;;-4.50;100.00;101883.63;5073564;28;20252;-73
2024/01/10 04:23:52;;;;;;;2.80;2.60;;;;;;;-4.49;100.00;101892.13;5053556;28;20672;-73
2024/01/10 04:26:20;;;;;;;2.13;2.03;;;;;;;-4.55;100.00;101895.81;5072583;28;20814;-72
2024/01/10 04:28:47;;;;;;;1.27;1.27;;;;;;;-4.42;100.00;101895.41;5072318;28;20195;-73
2024/01/10 04:31:14;;;;;;;2.63;2.53;;;;;;;-4.45;100.00;101892.56;5070174;28;20206;-74
2024/01/10 04:33:41;;;;;;;1.50;1.50;;;;;;;-4.57;100.00;101887.16;5072932;28;20191;-71
2024/01/10 04:36:08;;;;;;;3.70;2.50;;;;;;;-4.53;100.00;101899.38;5073038;28;20234;-73
2024/01/10 04:38:35;;;;;;;1.70;1.70;;;;;;;-4.51;100.00;101902.97;5073012;28;20701;-72
2024/01/10 04:41:02;;;;;;;2.37;2.30;;;;;;;-4.58;100.00;101900.56;5073335;28;20195;-73
2024/01/10 04:43:30;;;;;;;4.10;2.23;;;;;;;-4.45;100.00;101892.56;5073034;28;20206;-73
2024/01/10 04:45:56;;;;;;;1.47;1.47;;;;;;;-4.51;100.00;101895.38;5072923;28;20215;-73
2024/01/10 04:48:23;;;;;;;1.40;1.40;;;;;;;-4.39;100.00;101897.38;5054872;28;20206;-73
2024/01/10 04:50:50;;;;;;;1.33;1.33;;;;;;;-4.42;100.00;101900.47;5070750;28;20206;-73
2024/01/10 04:53:17;;;;;;;1.40;1.40;;;;;;;-4.42;100.00;101887.81;5054645;28;20613;-74
2024/01/10 04:55:44;;;;;;;1.30;1.30;;;;;;;-4.87;100.00;101797.09;5072751;28;20579;-73
2024/01/10 04:58:11;;;;;;;1.23;1.23;;;;;;;-4.22;100.00;101905.97;5060813;28;20662;-73
2024/01/10 05:00:39;;;;;;;1.73;1.73;;;;;;;-4.35;100.00;101889.38;5072896;28;20217;-73
2024/01/10 05:03:06;;;;;;;1.40;1.40;;;;;;;-4.42;100.00;101897.09;5058488;28;20270;-73
2024/01/10 05:05:33;;;;;;;2.97;2.87;;;;;;;-4.23;100.00;101905.78;5073192;28;20276;-73
2024/01/10 05:08:01;;;;;;;1.40;1.40;;;;;;;-4.30;100.00;101903.38;5073375;28;20581;-73
2024/01/10 05:10:27;;;;;;;3.70;3.50;;;;;;;-4.31;100.00;101904.09;5072869;28;20663;-73
2024/01/10 05:12:55;;;;;;;1.07;1.07;;;;;;;-4.97;100.00;101792.72;5072045;28;20557;-73
2024/01/10 05:15:22;;;;;;;2.13;2.13;;;;;;;-4.42;100.00;101903.00;5072517;28;20202;-73
2024/01/10 05:17:53;;;;;;;2.97;2.87;;;;;;;-4.37;100.00;101906.91;5072566;28;20199;-73
2024/01/10 05:20:20;;;;;;;1.57;1.57;;;;;;;-4.35;100.00;101909.63;5037395;28;20695;-73
2024/01/10 05:22:47;;;;;;;1.20;1.20;;;;;;;-4.39;100.00;101907.50;5072562;28;20201;-73
2024/01/10 05:25:14;;;;;;;1.20;1.20;;;;;;;-4.49;100.00;101902.25;5072170;28;20232;-73
2024/01/10 05:27:40;;;;;;;1.47;1.47;;;;;;;-4.43;100.00;101911.38;5070440;28;20199;-73
2024/01/10 05:30:09;;;;;;;1.50;1.50;;;;;;;-4.39;100.00;101908.41;5071631;28;20202;-73
2024/01/10 05:32:36;;;;;;;1.40;1.40;;;;;;;-4.50;100.00;101888.69;5072171;28;20187;-74
2024/01/10 05:35:05;;;;;;;1.60;1.60;;;;;;;-4.47;100.00;101880.50;5070065;28;20271;-72
2024/01/10 05:37:31;;;;;;;2.77;2.27;;;;;;;-4.36;100.00;101905.28;5071334;28;20665;-72
2024/01/10 05:39:59;;;;;;;1.50;1.50;;;;;;;-4.32;100.00;101905.78;5072275;28;20203;-74
2024/01/10 05:42:27;;;;;;;1.83;1.73;;;;;;;-4.36;100.00;101906.19;5069302;28;20282;-71
2024/01/10 05:44:54;;;;;;;1.43;1.43;;;;;;;-4.77;100.00;101828.53;5071902;28;20643;-73
2024/01/10 05:47:21;;;;;;;1.20;1.20;;;;;;;-4.34;100.00;101907.22;5071133;28;20304;-73
2024/01/10 05:49:47;;;;;;;3.40;3.10;;;;;;;-4.24;100.00;101898.94;5071573;28;20187;-73
2024/01/10 05:52:16;;;;;;;1.50;1.50;;;;;;;-4.26;100.00;101882.69;5071869;28;20206;-73
2024/01/10 05:54:42;;;;;;;1.80;1.80;;;;;;;-4.31;100.00;101896.50;5072040;28;20585;-74
2024/01/10 05:57:09;;;;;;;1.13;1.13;;;;;;;-4.19;100.00;101908.81;5071840;28;20205;-73
2024/01/10 05:59:36;;;;;;;2.13;2.13;;;;;;;-4.19;100.00;101902.84;5069576;28;20190;-79
2024/01/10 06:02:04;;;;;;;3.03;2.83;;;;;;;-4.23;100.00;101895.66;5070221;28;20203;-75
2024/01/10 06:04:31;;;;;;;1.30;1.30;;;;;;;-4.16;100.00;101898.97;5053202;28;20647;-74
2024/01/10 06:06:59;;;;;;;1.40;1.40;;;;;;;-4.19;100.00;101903.75;5071070;28;20234;-79
2024/01/10 06:09:27;;;;;;;1.17;1.17;;;;;;;-4.09;100.00;101903.94;5071211;28;20202;-73
2024/01/10 06:11:54;;;;;;;2.77;1.97;;;;;;;-4.10;100.00;101906.28;5057973;28;20203;-73
2024/01/10 06:14:21;;;;;;;1.73;1.73;;;;;;;-4.17;100.00;101907.31;5071324;28;20210;-74
2024/01/10 06:16:47;;;;;;;1.30;1.30;;;;;;;-4.07;100.00;101911.69;5071392;28;20211;-74
2024/01/10 06:19:15;;;;;;;1.40;1.40;;;;;;;-3.61;100.00;101905.44;5071294;28;20679;-73
2024/01/10 06:21:42;;;;;;;1.50;1.50;;;;;;;-3.92;100.00;101910.69;5070044;28;20675;-74
2024/01/10 06:24:09;;;;;;;1.20;1.20;;;;;;;-3.68;100.00;101918.25;5070907;28;20599;-74
2024/01/10 06:26:37;;;;;;;1.87;1.87;;;;;;;-3.68;100.00;101917.34;5070890;28;20253;-73
2024/01/10 06:29:04;;;;;;;1.47;1.47;;;;;;;-3.89;100.00;101908.50;5070924;28;20195;-74
2024/01/10 06:31:31;;;;;;;2.17;2.07;;;;;;;-3.92;100.00;101920.81;5070009;28;20210;-73
2024/01/10 06:33:57;;;;;;;1.47;1.47;;;;;;;-3.99;100.00;101922.63;5070287;28;20265;-76
2024/01/10 06:36:25;;;;;;;1.27;1.27;;;;;;;-3.90;100.00;101921.91;5070838;28;20233;-75
2024/01/10 06:38:51;;;;;;;1.30;1.30;;;;;;;-3.94;100.00;101888.50;5071218;28;20206;-72
2024/01/10 06:41:23;;;;;;;1.70;1.70;;;;;;;-3.88;100.00;101909.38;5071135;28;20206;-74
2024/01/10 06:43:52;;;;;;;1.30;1.30;;;;;;;-3.74;100.00;101912.56;5069816;28;20203;-72
2024/01/10 06:46:20;;;;;;;1.73;1.73;;;;;;;-3.78;100.00;101929.84;5070784;28;20234;-76
2024/01/10 06:48:47;;;;;;;3.17;3.07;;;;;;;-3.74;100.00;101937.00;5070409;28;20329;-73
2024/01/10 06:51:14;;;;;;;1.60;1.60;;;;;;;-3.68;100.00;101937.63;5070619;28;20593;-72
2024/01/10 06:53:41;;;;;;;1.80;1.80;;;;;;;-3.76;100.00;101944.44;5071092;28;20199;-73
2024/01/10 06:56:09;;;;;;;1.10;1.10;;;;;;;-4.06;100.00;101878.91;5035068;28;20282;-74
2024/01/10 06:58:36;;;;;;;2.20;1.97;;;;;;;-3.67;100.00;101903.91;5039022;28;20206;-71
2024/01/10 07:01:05;;;;;;;1.33;1.33;;;;;;;-3.69;100.00;101896.19;5078021;28;20194;-73
2024/01/10 07:03:32;;;;;;;5.57;4.87;;;;;;;-3.94;100.00;101897.00;5082943;28;20652;-74
2024/01/10 07:05:59;;;;;;;1.30;1.30;;;;;;;-3.65;100.00;101898.28;5082466;28;20237;-72
2024/01/10 07:08:26;;;;;;;1.80;1.73;;;;;;;-3.31;100.00;101942.19;5076123;28;20206;-72
2024/01/10 07:10:55;;;;;;;1.40;1.40;;;;;;;-3.31;100.00;101935.47;5075791;28;20206;-70
2024/01/10 07:13:22;;;;;;;1.20;1.20;;;;;;;-2.78;100.00;101938.19;5069808;28;20214;-69
2024/01/10 07:15:50;;;;;;;1.40;1.40;;;;;;;-2.90;100.00;101934.47;5064192;28;20210;-73
2024/01/10 07:18:18;;;;;;;1.30;1.30;;;;;;;-3.05;100.00;101918.66;5069885;28;20199;-72
2024/01/10 07:20:45;;;;;;;2.37;2.27;;;;;;;-2.92;100.00;101940.13;5070170;28;20595;-73
2024/01/10 07:23:12;;;;;;;1.33;1.33;;;;;;;-3.02;100.00;101939.25;5069973;28;20199;-70
2024/01/10 07:25:39;;;;;;;2.50;2.40;;;;;;;-2.07;100.00;101939.13;5070071;28;20195;-71
2024/01/10 07:28:06;;;;;;;1.10;1.10;;;;;;;-2.58;100.00;101948.66;5069860;28;20649;-74
2024/01/10 07:30:33;;;;;;;1.43;1.43;;;;;;;-2.71;100.00;101947.31;5070422;28;20202;-73
2024/01/10 07:33:00;;;;;;;1.30;1.30;;;;;;;-2.70;100.00;101949.09;5070237;28;20234;-74
2024/01/10 07:35:29;;;;;;;2.23;2.13;;;;;;;-2.70;100.00;101947.44;5069898;28;20241;-71
2024/01/10 07:37:56;;;;;;;1.10;1.10;;;;;;;-2.63;100.00;101951.47;5070131;28;20669;-72
2024/01/10 07:40:23;;;;;;;1.40;1.40;;;;;;;-2.61;100.00;101955.97;5069856;28;20238;-71
2024/01/10 07:42:50;;;;;;;2.93;1.63;;;;;;;-2.74;100.00;101950.44;5070011;28;20252;-72
2024/01/10 07:45:17;;;;;;;1.50;1.50;;;;;;;-2.56;100.00;101964.00;5034377;28;20209;-71
2024/01/10 07:47:44;;;;;;;1.50;1.50;;;;;;;-2.36;100.00;101958.31;5069689;28;20308;-71
2024/01/10 07:50:14;;;;;;;1.50;1.50;;;;;;;-2.25;100.00;101952.63;5069782;28;20222;-72
2024/01/10 07:52:42;;;;;;;1.13;1.13;;;;;;;-2.46;100.00;101956.53;5069209;28;20199;-72
2024/01/10 07:55:10;;;;;;;1.40;1.40;;;;;;;-2.38;100.00;101960.69;5064294;28;20675;-72
2024/01/10 07:57:37;;;;;;;1.37;1.37;;;;;;;-2.32;100.00;101960.41;5069216;28;20202;-72
2024/01/10 08:00:05;;;;;;;1.20;1.20;;;;;;;-2.16;100.00;101958.56;5069902;28;20214;-72
2024/01/10 08:02:33;;;;;;;1.10;1.10;;;;;;;-2.23;100.00;101971.44;5069819;28;20210;-72
2024/01/10 08:05:00;;;;;;;1.17;1.17;;;;;;;-2.20;100.00;101975.16;5069553;28;20629;-73
2024/01/10 08:07:27;;;;;;;1.27;1.27;;;;;;;-2.13;100.00;101964.84;5069563;28;20233;-70
2024/01/10 08:09:55;;;;;;;1.30;1.30;;;;;;;-1.87;100.00;101969.84;5069253;28;20227;-71
2024/01/10 08:12:22;;;;;;;1.23;1.23;;;;;;;-1.93;100.00;101968.38;5045348;28;20199;-72
2024/01/10 08:14:50;;;;;;;1.40;1.40;;;;;;;-2.08;100.00;101976.34;5069230;28;20203;-72
2024/01/10 08:17:16;;;;;;;1.20;1.20;;;;;;;-2.10;100.00;101980.38;5069401;28;20298;-72
2024/01/10 08:19:43;;;;;;;1.00;1.00;;;;;;;-2.24;100.00;101929.00;5069119;28;20206;-72
2024/01/10 08:22:10;;;;;;;1.20;1.20;;;;;;;-2.08;100.00;101973.81;5050507;28;20198;-72
2024/01/10 08:24:36;;;;;;;4.63;2.90;;;;;;;-1.88;100.00;101979.84;5069194;28;20215;-72
2024/01/10 08:27:05;;;;;;;1.10;1.10;;;;;;;-1.74;97.49;101985.50;5050827;28;20289;-72
2024/01/10 08:29:32;;;;;;;2.00;2.00;;;;;;;-1.72;98.30;101983.09;5069240;28;20203;-72
2024/01/10 08:31:58;;;;;;;3.37;3.17;;;;;;;-1.70;97.29;101974.84;5068126;28;20202;-72
2024/01/10 08:34:26;;;;;;;1.17;1.17;;;;;;;-1.76;95.30;101979.38;5069256;28;20199;-71
2024/01/10 08:36:53;;;;;;;2.80;2.67;;;;;;;-1.84;94.05;101962.50;5034544;28;20199;-72
2024/01/10 08:39:21;;;;;;;2.37;2.20;;;;;;;-1.77;93.44;101944.53;5068574;28;20195;-70
2024/01/10 08:41:48;;;;;;;0.90;0.90;;;;;;;-1.63;93.14;101977.22;5069350;28;20206;-72
2024/01/10 08:44:17;;;;;;;4.47;1.77;;;;;;;-1.43;90.28;101975.66;5069183;28;20686;-72
2024/01/10 08:46:43;;;;;;;1.30;1.30;;;;;;;-1.65;89.78;101925.34;5066822;28;20218;-72
2024/01/10 08:49:10;;;;;;;1.67;1.67;;;;;;;-1.74;88.77;101947.34;5064809;28;20195;-72
2024/01/10 08:51:37;;;;;;;1.43;1.33;;;;;;;-1.77;85.22;101977.59;5069174;28;20805;-72
2024/01/10 08:54:04;;;;;;;1.10;1.10;;;;;;;-1.97;85.21;101954.50;5069198;28;20234;-73
2024/01/10 08:56:31;;;;;;;1.10;1.10;;;;;;;-1.72;85.30;101976.38;5069343;28;20202;-73
2024/01/10 08:58:58;;;;;;;1.13;1.13;;;;;;;-1.91;86.21;101972.84;5069105;28;20256;-74
2024/01/10 09:01:26;;;;;;;2.43;2.33;;;;;;;-1.80;84.24;101956.06;5069269;28;20207;-73
2024/01/10 09:03:53;;;;;;;0.93;0.93;;;;;;;-1.80;82.89;101946.78;5071896;28;20198;-73
2024/01/10 09:06:20;;;;;;;1.00;1.00;;;;;;;-1.75;82.43;101968.44;5073028;28;20357;-73
2024/01/10 09:08:47;;;;;;;1.43;1.33;;;;;;;-1.89;79.17;101961.16;5072747;28;20284;-73
2024/01/10 09:11:14;;;;;;;1.80;1.80;;;;;;;-1.76;79.27;101961.59;5037545;28;20226;-72
2024/01/10 09:13:41;;;;;;;1.37;1.37;;;;;;;-1.70;79.80;101964.69;5072644;28;20206;-72
2024/01/10 09:16:09;;;;;;;1.30;1.30;;;;;;;-1.78;78.16;101947.81;5072353;28;20195;-72
2024/01/10 09:18:38;;;;;;;1.40;1.40;;;;;;;-1.56;76.40;101948.16;5026089;28;20683;-72
2024/01/10 09:21:05;;;;;;;1.10;1.10;;;;;;;-1.37;77.44;101949.13;5071221;28;20649;-73
2024/01/10 09:23:32;;;;;;;2.27;2.17;;;;;;;-1.49;77.42;101925.09;5072858;28;20209;-74
2024/01/10 09:25:59;;;;;;;1.47;1.47;;;;;;;-1.23;74.64;101938.56;5072472;28;20195;-72
2024/01/10 09:28:26;;;;;;;1.43;1.33;;;;;;;-1.26;73.22;101929.75;5072297;28;20202;-72
2024/01/10 09:30:54;;;;;;;0.90;0.90;;;;;;;-1.24;71.26;101930.75;5062212;28;20215;-74
2024/01/10 09:33:22;;;;;;;11.83;1.70;;;;;;;-1.08;69.86;101933.97;5071810;28;20202;-71
2024/01/10 09:35:50;;;;;;;1.00;1.00;;;;;;;-1.02;70.17;101937.06;5071930;28;20230;-71
2024/01/10 09:38:17;;;;;;;6.17;1.83;;;;;;;-1.67;69.38;101837.84;5072082;28;20671;-71
2024/01/10 09:40:44;;;;;;;1.20;1.20;;;;;;;-0.89;69.93;101939.94;5072129;28;20687;-72
2024/01/10 09:43:11;;;;;;;2.27;2.17;;;;;;;-0.84;67.54;101938.72;5071717;28;20211;-72
2024/01/10 09:45:46;;;;;;;1.03;1.03;;;;;;;-0.74;64.67;101931.13;5071676;28;20643;-72
2024/01/10 09:48:15;;;;;;;1.13;1.13;;;;;;;-0.70;65.29;101933.19;5071680;28;20260;-72
2024/01/10 09:50:42;;;;;;;1.33;1.33;;;;;;;-0.91;65.00;101916.00;5070780;28;20335;-71
2024/01/10 09:53:17;;;;;;;1.33;1.33;;;;;;;-0.94;66.67;101933.56;5071469;28;20222;-73
2024/01/10 09:55:45;;;;;;;1.47;1.43;;;;;;;-0.85;67.46;101926.72;5071949;28;20199;-73
2024/01/10 09:58:12;;;;;;;1.47;1.47;;;;;;;-0.88;64.51;101926.47;5071247;28;20652;-72
2024/01/10 10:00:41;;;;;;;0.90;0.90;;;;;;;-0.95;64.40;101928.31;5071496;28;20245;-72
2024/01/10 10:03:11;;;;;;;1.10;1.10;;;;;;;-0.96;64.73;101931.63;5071728;28;20557;-72
2024/01/10 10:05:38;;;;;;;1.00;1.00;;;;;;;-0.96;63.54;101880.72;5071626;28;20652;-72
2024/01/10 10:08:09;;;;;;;1.10;1.10;;;;;;;-1.14;64.39;101882.53;5071704;28;20279;-72
2024/01/10 10:10:42;;;;;;;1.03;1.03;;;;;;;-0.88;65.14;101889.91;5072504;28;20203;-72
2024/01/10 10:13:10;;;;;;;0.90;0.90;;;;;;;-0.56;64.47;101920.03;5071236;28;20202;-72
2024/01/10 10:15:38;;;;;;;1.10;1.10;;;;;;;-0.54;64.51;101909.97;5071268;28;20217;-72
2024/01/10 10:18:05;;;;;;;1.63;1.57;;;;;;;-0.51;63.99;101884.78;5071471;28;20203;-72
2024/01/10 10:20:35;;;;;;;0.93;0.93;;;;;;;-0.51;62.83;101902.59;5071401;28;20257;-72
2024/01/10 10:23:04;;;;;;;1.00;1.00;;;;;;;-1.03;62.29;101800.34;5070941;28;20202;-72
2024/01/10 10:25:32;;;;;;;1.13;1.13;;;;;;;-0.35;62.86;101892.09;5065725;28;20230;-72
2024/01/10 10:28:01;;;;;;;1.50;1.50;;;;;;;-0.58;64.90;101832.41;5070900;28;20666;-72
2024/01/10 10:30:28;;;;;;;1.10;1.10;;;;;;;-0.08;63.24;101889.38;5066080;28;20211;-75
2024/01/10 10:32:55;;;;;;;1.00;1.00;;;;;;;-0.34;62.00;101848.00;5070993;28;20194;-74
2024/01/10 10:35:22;;;;;;;2.70;2.50;;;;;;;-0.13;61.67;101866.03;5069311;28;20238;-74
2024/01/10 10:37:50;;;;;;;0.87;0.87;;;;;;;-0.21;60.84;101871.22;5067200;28;20690;-75
2024/01/10 10:40:17;;;;;;;0.90;0.90;;;;;;;-0.35;60.05;101851.31;5070868;28;20222;-74
2024/01/10 10:42:46;;;;;;;1.20;1.20;;;;;;;-0.18;59.45;101871.53;5070938;28;20283;-74
2024/01/10 10:45:18;;;;;;;1.30;1.30;;;;;;;-0.11;58.18;101866.19;5067618;28;20285;-73
2024/01/10 10:47:46;;;;;;;0.83;0.83;;;;;;;-0.28;57.69;101845.97;5070351;28;20222;-73
2024/01/10 10:50:15;;;;;;;0.97;0.97;;;;;;;-0.10;55.48;101856.09;5043524;28;20195;-72
2024/01/10 10:52:46;;;;;;;2.67;2.23;;;;;;;-0.49;53.17;101845.03;5070759;28;20226;-72
2024/01/10 10:55:16;;;;;;;1.10;1.10;;;;;;;-0.37;53.79;101842.66;5071103;28;20276;-72
2024/01/10 10:57:45;;;;;;;1.10;1.10;;;;;;;-0.24;55.12;101851.47;5070935;28;20683;-74
2024/01/10 11:00:16;;;;;;;1.10;1.10;;;;;;;-0.19;54.76;101857.88;5070698;28;20207;-72
2024/01/10 11:02:44;;;;;;;1.10;1.10;;;;;;;-0.06;55.05;101857.25;5070558;28;20225;-74
2024/01/10 11:05:11;;;;;;;1.30;1.30;;;;;;;-0.03;55.20;101839.66;5070785;28;20203;-73
2024/01/10 11:07:38;;;;;;;1.10;1.10;;;;;;;-0.16;54.80;101840.28;5070893;28;20231;-72
2024/01/10 11:10:11;;;;;;;1.00;1.00;;;;;;;-0.07;59.53;101827.41;5070680;28;20207;-73
2024/01/10 11:13:26;;;;;;;1.10;1.10;;;;;;;0.05;56.92;101841.22;5035375;28;20206;-75
2024/01/10 11:16:30;;;;;;;0.80;0.80;;;;;;;-0.17;55.56;101842.69;5068316;28;20201;-74
2024/01/10 11:19:15;;;;;;;2.90;2.70;;;;;;;-0.30;55.49;101838.22;5039066;28;20199;-71
2024/01/10 11:21:57;;;;;;;4.67;1.83;;;;;;;-0.10;57.67;101824.63;5034219;28;20203;-71